Time;durP1;ratioP1;P1;durP2;ratioP2;P2;SDS_P1;SDS_P2;PMS_P1;PMS_P2;Temp;Humidity;BMP_temperature;BMP_pressure;BME280_temperature;BME280_humidity;BME280_pressure;Samples;Min_cycle;Max_cycle;Signal;HPM_P1;HPM_P2
2022/09/24 05:20:08;;;;;;;10.02;4.13;;;;;;;15.01;100.00;100437.78;5140908;27;20386;-85
2022/09/24 05:22:35;;;;;;;8.38;4.25;;;;;;;14.98;100.00;100440.84;5098081;28;20024;-86
2022/09/24 05:25:01;;;;;;;15.75;4.97;;;;;;;15.04;100.00;100449.09;5110895;28;20031;-85
2022/09/24 05:27:26;;;;;;;11.27;4.53;;;;;;;14.92;100.00;100449.63;5104209;28;20032;-83
2022/09/24 05:32:51;;;;;;;9.25;4.95;;;;;;;14.86;100.00;100439.72;5280858;22;20121;-86
2022/09/24 05:58:25;;;;;;;;;;;;;;;;;;;;;
2022/09/24 06:57:03;;;;;;;24.20;6.13;;;;;;;15.15;100.00;100480.59;5332088;23;20278;-83
2022/09/24 07:01:00;;;;;;;19.05;5.63;;;;;;;15.28;100.00;100488.75;4924123;29;20301;-85
2022/09/24 09:50:51;;;;;;;19.42;10.88;;;;;;;16.70;85.36;100537.09;3743166;26;20054;-86
2022/09/24 09:54:01;;;;;;;18.30;10.15;;;;;;;16.80;83.41;100534.88;4961981;28;20047;-86
2022/09/24 09:56:53;;;;;;;20.70;11.07;;;;;;;16.72;84.07;100529.69;4979139;28;20027;-83
2022/09/24 10:00:33;;;;;;;20.20;10.65;;;;;;;16.65;82.35;100528.84;4967706;28;20122;-84
2022/09/24 10:03:33;;;;;;;19.60;10.35;;;;;;;16.74;82.98;100532.97;4919396;29;20040;-86
2022/09/24 10:07:04;;;;;;;40.47;11.07;;;;;;;16.83;83.32;100531.78;4922477;29;20080;-84
2022/09/24 10:14:11;;;;;;;18.45;10.32;;;;;;;16.90;84.34;100532.59;4991052;28;20066;-85
2022/09/24 10:17:04;;;;;;;22.70;10.00;;;;;;;16.87;84.76;100540.25;4949170;28;20043;-86
2022/09/24 10:19:49;;;;;;;;;;;;;;;16.86;83.20;100536.72;5046075;23;20151;-86
2022/09/24 10:22:27;;;;;;;17.95;9.23;;;;;;;16.84;83.51;100527.22;5020705;28;19980;-83
2022/09/24 10:25:35;;;;;;;17.75;10.32;;;;;;;16.91;84.37;100533.44;5003374;28;20053;-84
2022/09/24 10:31:29;;;;;;;25.67;10.25;;;;;;;16.89;84.46;100524.78;4992525;28;20036;-86
2022/09/24 10:34:30;;;;;;;20.40;10.50;;;;;;;16.98;83.17;100529.75;5021059;28;20011;-83
2022/09/24 10:40:44;;;;;;;17.00;11.02;;;;;;;17.15;86.50;100532.03;5734188;23;20049;-82
2022/09/24 10:49:40;;;;;;;19.05;10.70;;;;;;;17.11;88.79;100534.28;1444268;23;20065;-88
2022/09/24 10:52:31;;;;;;;19.02;11.63;;;;;;;17.10;88.55;100534.50;5038633;28;20022;-90
2022/09/24 10:55:30;;;;;;;18.65;11.43;;;;;;;17.10;87.05;100521.13;5003272;28;20088;-91
2022/09/24 11:03:53;;;;;;;17.55;11.40;;;;;;;17.08;87.16;100512.44;4895361;23;20669;-90
2022/09/24 11:06:44;;;;;;;23.52;11.95;;;;;;;17.20;87.44;100510.84;5030728;23;20049;-88
2022/09/24 11:09:29;;;;;;;25.00;12.75;;;;;;;17.22;88.51;100516.78;4999374;28;20034;-89
2022/09/24 11:12:26;;;;;;;25.75;14.75;;;;;;;17.29;88.83;100501.56;4999117;28;20038;-90
2022/09/24 11:15:36;;;;;;;22.15;12.52;;;;;;;17.30;86.44;100500.53;5016769;28;20038;-89
2022/09/24 11:18:10;;;;;;;19.88;13.23;;;;;;;17.33;84.82;100500.13;4998929;28;20045;-90
2022/09/24 11:20:58;;;;;;;24.55;12.93;;;;;;;17.55;84.20;100504.22;5016346;28;20034;-91
2022/09/24 11:23:49;;;;;;;22.50;12.73;;;;;;;17.50;84.75;100501.31;5014765;28;20045;-89
2022/09/24 11:26:49;;;;;;;20.77;13.35;;;;;;;17.51;85.31;100509.16;4999862;28;20033;-88
2022/09/24 11:29:48;;;;;;;20.17;12.57;;;;;;;17.70;82.18;100512.88;5016640;28;20049;-90
2022/09/24 11:32:37;;;;;;;21.40;12.48;;;;;;;17.68;80.18;100498.88;4940700;29;20055;-88
2022/09/24 11:35:25;;;;;;;23.25;12.95;;;;;;;17.56;80.07;100490.63;4957586;29;20050;-88
2022/09/24 11:37:58;;;;;;;19.27;12.27;;;;;;;17.42;81.64;100488.97;4954961;29;20062;-89
2022/09/24 11:40:56;;;;;;;19.83;12.80;;;;;;;17.43;80.04;100495.16;4956140;29;20031;-88
2022/09/24 11:43:24;;;;;;;17.88;11.77;;;;;;;17.37;81.35;100490.63;4970799;28;20064;-90
2022/09/24 11:45:58;;;;;;;17.95;11.93;;;;;;;17.46;82.16;100484.03;4998101;28;20411;-89
2022/09/24 11:48:36;;;;;;;20.75;12.57;;;;;;;17.64;79.91;100481.56;5015185;28;20065;-89
2022/09/24 11:51:36;;;;;;;20.42;11.90;;;;;;;17.46;82.48;100474.16;5015198;28;20102;-88
2022/09/24 11:54:59;;;;;;;23.08;12.00;;;;;;;17.50;82.75;100461.13;5016667;28;20053;-91
2022/09/24 11:58:02;;;;;;;29.48;12.40;;;;;;;17.51;83.81;100457.41;5000811;28;20046;-91
2022/09/24 12:00:47;;;;;;;22.88;11.20;;;;;;;17.55;83.82;100461.34;5002825;28;20041;-91
2022/09/24 12:09:43;;;;;;;17.25;10.80;;;;;;;17.77;82.84;100457.41;4900197;26;20042;-90
2022/09/24 12:12:51;;;;;;;25.60;11.43;;;;;;;17.44;86.87;100473.50;5015837;28;20038;-89
2022/09/24 12:15:47;;;;;;;22.95;11.38;;;;;;;17.49;88.37;100470.22;5016061;28;20034;-91
2022/09/24 12:18:22;;;;;;;23.63;11.88;;;;;;;17.61;87.24;100460.53;4998360;28;20053;-82
2022/09/24 12:20:53;;;;;;;29.25;10.98;;;;;;;17.54;87.78;100462.38;4991556;28;20377;-87
2022/09/24 12:23:26;;;;;;;27.92;11.98;;;;;;;17.69;86.64;100467.53;4996694;28;20042;-82
2022/09/24 12:25:54;;;;;;;18.00;10.77;;;;;;;17.55;85.60;100455.97;5014377;28;20042;-85
2022/09/24 12:34:49;;;;;;;15.35;9.80;;;;;;;17.28;87.16;100465.06;4990990;28;20049;-86
2022/09/24 12:37:20;;;;;;;25.40;11.27;;;;;;;17.28;87.36;100459.72;4915037;29;20052;-87
2022/09/24 12:39:57;;;;;;;26.52;10.88;;;;;;;17.42;86.26;100462.19;4987672;28;20074;-87
2022/09/24 12:42:32;;;;;;;22.08;12.60;;;;;;;17.42;86.68;100466.72;4987580;28;20030;-86
2022/09/24 12:45:02;;;;;;;22.10;10.05;;;;;;;17.43;87.11;100458.44;5009785;28;20030;-86
2022/09/24 12:47:32;;;;;;;18.50;10.88;;;;;;;17.39;87.23;100459.09;4995315;28;20428;-85
2022/09/24 12:50:00;;;;;;;22.65;11.40;;;;;;;17.58;87.08;100465.47;4993979;28;20077;-87
2022/09/24 12:52:41;;;;;;;19.75;11.25;;;;;;;17.51;89.03;100458.25;4994955;28;20034;-85
2022/09/24 12:55:27;;;;;;;26.42;11.02;;;;;;;17.38;91.26;100450.22;4977250;28;20080;-83
2022/09/24 12:57:54;;;;;;;17.00;10.88;;;;;;;17.40;91.94;100452.72;4979040;28;20515;-86
2022/09/24 13:00:44;;;;;;;15.57;10.73;;;;;;;17.51;89.86;100454.75;4996811;28;20030;-83
2022/09/24 13:03:33;;;;;;;25.35;11.00;;;;;;;17.34;92.09;100453.53;4997119;28;20034;-88
2022/09/24 13:06:00;;;;;;;18.75;10.73;;;;;;;17.18;93.40;100456.63;4997092;28;20475;-85
2022/09/24 13:08:35;;;;;;;17.88;10.88;;;;;;;17.11;97.26;100464.66;4979343;28;21326;-84
2022/09/24 13:11:04;;;;;;;17.35;10.40;;;;;;;17.28;93.17;100465.06;4996049;28;20089;-85
2022/09/24 13:13:34;;;;;;;21.77;10.65;;;;;;;17.19;95.44;100466.31;4997396;28;20081;-84
2022/09/24 13:16:15;;;;;;;22.92;12.23;;;;;;;17.29;96.20;100466.72;4996882;28;20487;-85
2022/09/24 13:18:42;;;;;;;25.10;11.98;;;;;;;17.02;100.00;100458.69;4996005;28;20102;-86
2022/09/24 13:21:20;;;;;;;19.65;11.32;;;;;;;16.93;100.00;100462.63;4996276;28;20495;-82
2022/09/24 13:23:48;;;;;;;17.27;12.00;;;;;;;17.21;100.00;100457.03;4978230;28;20554;-85
2022/09/24 13:26:27;;;;;;;20.42;11.10;;;;;;;17.13;100.00;100453.75;4979456;28;20041;-84
2022/09/24 13:28:59;;;;;;;21.08;11.50;;;;;;;17.36;98.46;100446.13;4978304;28;20073;-83
2022/09/24 13:31:28;;;;;;;21.00;11.73;;;;;;;17.17;100.00;100441.59;4995487;28;20117;-83
2022/09/24 13:33:58;;;;;;;21.63;12.38;;;;;;;17.06;100.00;100432.34;4995153;28;20030;-86
2022/09/24 13:36:43;;;;;;;18.63;12.35;;;;;;;17.05;100.00;100439.53;4978341;28;20046;-87
2022/09/24 13:40:02;;;;;;;26.50;13.05;;;;;;;16.97;100.00;100433.53;4995951;28;20042;-84
2022/09/24 13:42:42;;;;;;;22.10;12.52;;;;;;;16.91;100.00;100427.16;4919885;29;20036;-85
2022/09/24 13:45:17;;;;;;;19.65;12.57;;;;;;;16.97;100.00;100421.00;4994357;28;20034;-83
2022/09/24 13:47:52;;;;;;;18.52;12.23;;;;;;;16.88;100.00;100419.56;5005748;28;20026;-85
2022/09/24 13:50:24;;;;;;;19.50;12.75;;;;;;;16.72;100.00;100406.56;5005211;28;20034;-84
2022/09/24 13:52:53;;;;;;;19.60;12.52;;;;;;;16.71;100.00;100399.56;5005921;28;20389;-86
2022/09/24 13:55:24;;;;;;;20.13;12.50;;;;;;;17.10;100.00;100403.28;5004026;28;20026;-83
2022/09/24 13:57:50;;;;;;;44.95;24.52;;;;;;;16.86;100.00;100391.34;4986550;28;20491;-84
2022/09/24 14:00:18;;;;;;;31.83;17.83;;;;;;;17.01;100.00;100392.78;4987398;28;20056;-85
2022/09/24 14:03:24;;;;;;;22.73;13.00;;;;;;;17.05;100.00;100386.00;5005185;28;20034;-82
2022/09/24 14:05:50;;;;;;;19.52;12.02;;;;;;;17.06;100.00;100386.81;5012506;28;20435;-85
2022/09/24 14:08:20;;;;;;;23.73;13.63;;;;;;;17.05;100.00;100387.84;4992826;28;20046;-86
2022/09/24 14:10:49;;;;;;;19.15;13.45;;;;;;;17.01;100.00;100382.06;5005835;28;20145;-84
2022/09/24 14:13:23;;;;;;;18.70;12.70;;;;;;;17.08;100.00;100384.75;5020157;28;20089;-85
2022/09/24 14:15:54;;;;;;;21.83;13.98;;;;;;;17.06;100.00;100394.84;5006213;28;20066;-87
2022/09/24 14:18:30;;;;;;;16.67;12.52;;;;;;;17.08;100.00;100391.94;5008778;28;20497;-90
2022/09/24 14:21:34;;;;;;;19.38;13.07;;;;;;;16.96;100.00;100392.59;4977095;28;20047;-89
2022/09/24 14:24:20;;;;;;;21.92;14.70;;;;;;;16.94;100.00;100388.44;4959965;28;20043;-89
2022/09/24 14:26:58;;;;;;;21.88;13.40;;;;;;;17.01;100.00;100384.75;4959906;28;20097;-88
2022/09/24 14:29:39;;;;;;;28.17;14.05;;;;;;;16.96;100.00;100386.41;4975302;28;20101;-85
2022/09/24 14:32:06;;;;;;;26.02;13.45;;;;;;;17.13;100.00;100386.81;4957231;28;20034;-85
2022/09/24 14:34:32;;;;;;;24.67;14.55;;;;;;;17.14;100.00;100393.78;4986747;28;20034;-88
2022/09/24 14:37:11;;;;;;;21.35;14.68;;;;;;;17.20;100.00;100387.63;4978052;28;20042;-85
2022/09/24 14:39:41;;;;;;;23.35;14.80;;;;;;;17.09;100.00;100386.41;5006334;28;20120;-89
2022/09/24 14:42:21;;;;;;;25.83;15.15;;;;;;;16.86;100.00;100386.00;4969991;28;20086;-85
2022/09/24 14:44:49;;;;;;;29.50;15.00;;;;;;;16.93;100.00;100376.94;5006057;28;20038;-87
2022/09/24 14:47:47;;;;;;;24.55;14.85;;;;;;;17.13;100.00;100365.38;4972834;28;20399;-89
2022/09/24 14:50:34;;;;;;;22.48;13.73;;;;;;;17.04;100.00;100367.44;4989637;28;20140;-86
2022/09/24 14:53:00;;;;;;;20.55;14.00;;;;;;;17.08;100.00;100354.47;4982660;28;20042;-85
2022/09/24 14:55:42;;;;;;;22.77;13.20;;;;;;;17.19;100.00;100348.47;5007425;28;20034;-82
2022/09/24 14:58:32;;;;;;;22.58;13.63;;;;;;;16.88;100.00;100355.31;5001782;28;20034;-84
2022/09/24 15:01:12;;;;;;;18.48;13.80;;;;;;;16.88;100.00;100339.25;5005640;28;20031;-89
2022/09/24 15:03:42;;;;;;;23.77;15.32;;;;;;;16.95;100.00;100347.28;4972997;28;20102;-84
2022/09/24 15:06:22;;;;;;;29.88;15.60;;;;;;;17.01;100.00;100357.16;5006051;28;20034;-87
2022/09/24 15:09:00;;;;;;;23.83;15.00;;;;;;;16.92;100.00;100356.53;5005365;28;20042;-88
2022/09/24 15:11:29;;;;;;;27.02;15.45;;;;;;;16.80;100.00;100354.72;4988616;28;20074;-89
2022/09/24 15:14:03;;;;;;;21.95;15.63;;;;;;;16.71;100.00;100354.06;5007472;28;20053;-86
2022/09/24 15:16:47;;;;;;;26.55;14.80;;;;;;;16.67;100.00;100344.81;4991079;28;20047;-88
2022/09/24 15:19:13;;;;;;;23.85;15.85;;;;;;;16.67;100.00;100349.34;4969013;28;20042;-87
2022/09/24 15:21:39;;;;;;;29.58;16.20;;;;;;;16.66;100.00;100340.50;4978954;28;20049;-84
2022/09/24 15:24:07;;;;;;;25.40;15.10;;;;;;;16.74;100.00;100345.63;4997790;28;20034;-86
2022/09/24 15:26:34;;;;;;;24.95;15.98;;;;;;;16.73;100.00;100354.72;5011007;28;20057;-88
2022/09/24 15:29:01;;;;;;;26.77;16.92;;;;;;;16.64;100.00;100352.44;5012839;28;20035;-83
2022/09/24 15:31:27;;;;;;;25.35;16.90;;;;;;;16.66;100.00;100353.88;4999667;28;20480;-88
2022/09/24 15:33:52;;;;;;;28.88;17.10;;;;;;;16.75;100.00;100347.28;5002090;28;20089;-88
2022/09/24 15:36:20;;;;;;;24.15;16.80;;;;;;;16.83;100.00;100351.63;5003913;28;20068;-89
2022/09/24 15:39:02;;;;;;;31.67;18.05;;;;;;;17.03;100.00;100366.59;5001855;28;20504;-87
2022/09/24 15:41:28;;;;;;;22.10;15.93;;;;;;;16.93;100.00;100354.69;4983720;28;20069;-87
2022/09/24 15:43:56;;;;;;;23.50;15.85;;;;;;;16.92;100.00;100353.88;5000632;28;20022;-88
2022/09/24 15:46:22;;;;;;;27.55;15.60;;;;;;;16.93;100.00;100358.19;5000078;28;20034;-86
2022/09/24 15:48:48;;;;;;;23.35;16.20;;;;;;;17.03;100.00;100345.19;4969081;28;20587;-85
2022/09/24 15:51:18;;;;;;;25.90;16.33;;;;;;;17.07;100.00;100348.28;4999333;28;20033;-87
2022/09/24 15:53:44;;;;;;;25.10;15.88;;;;;;;17.03;100.00;100334.47;4999270;28;20065;-87
2022/09/24 15:56:10;;;;;;;21.02;15.25;;;;;;;17.04;100.00;100346.84;4999627;28;20101;-85
2022/09/24 15:58:36;;;;;;;24.83;14.60;;;;;;;17.07;100.00;100345.59;4999546;28;20038;-87
2022/09/24 16:01:02;;;;;;;28.08;16.40;;;;;;;17.04;100.00;100346.00;4999223;28;20041;-84
2022/09/24 16:03:30;;;;;;;27.92;15.40;;;;;;;17.05;100.00;100347.66;4980751;28;20117;-86
2022/09/24 16:05:58;;;;;;;25.67;17.00;;;;;;;17.03;100.00;100342.50;4999937;28;20687;-88
2022/09/24 16:08:24;;;;;;;27.05;16.73;;;;;;;16.87;100.00;100348.28;4999789;28;20398;-84
2022/09/24 16:10:50;;;;;;;44.97;16.88;;;;;;;16.78;100.00;100340.69;4982429;28;20113;-89
2022/09/24 16:13:17;;;;;;;27.95;18.10;;;;;;;16.76;100.00;100342.75;4999664;28;20022;-88
2022/09/24 16:15:43;;;;;;;23.42;16.08;;;;;;;16.82;100.00;100341.94;5000161;28;20038;-87
2022/09/24 16:18:12;;;;;;;39.33;16.92;;;;;;;16.76;100.00;100340.91;5000028;28;20046;-85
2022/09/24 16:20:39;;;;;;;27.33;16.65;;;;;;;16.81;100.00;100342.94;4999341;28;20069;-86
2022/09/24 16:23:05;;;;;;;28.85;16.23;;;;;;;16.86;100.00;100338.63;4999565;28;20129;-89
2022/09/24 16:25:31;;;;;;;26.27;15.93;;;;;;;16.76;100.00;100338.22;5000367;28;20034;-87
2022/09/24 16:28:12;;;;;;;22.75;16.42;;;;;;;16.64;100.00;100339.88;4998696;28;20050;-87
2022/09/24 16:30:38;;;;;;;26.20;15.95;;;;;;;16.62;100.00;100341.09;4972141;28;20069;-87
2022/09/24 16:33:03;;;;;;;24.00;17.17;;;;;;;16.70;100.00;100341.75;4997179;28;20460;-88
2022/09/24 16:35:29;;;;;;;26.73;18.15;;;;;;;16.55;100.00;100341.09;4998463;28;20519;-88
2022/09/24 16:37:54;;;;;;;28.30;17.40;;;;;;;16.51;100.00;100337.97;5006213;28;20061;-88
2022/09/24 16:40:21;;;;;;;32.92;18.67;;;;;;;16.50;100.00;100338.19;5008222;28;20022;-87
2022/09/24 16:42:47;;;;;;;28.65;17.73;;;;;;;16.51;100.00;100343.34;5016674;28;20025;-86
2022/09/24 16:45:13;;;;;;;32.00;18.08;;;;;;;16.46;100.00;100339.63;5014869;28;20038;-86
2022/09/24 16:47:39;;;;;;;33.25;18.23;;;;;;;16.47;100.00;100338.63;4998776;28;20053;-87
2022/09/24 16:50:05;;;;;;;31.38;19.17;;;;;;;16.41;100.00;100342.09;5015184;28;20030;-88
2022/09/24 16:52:31;;;;;;;28.23;19.25;;;;;;;16.32;100.00;100340.63;4995621;28;20113;-85
2022/09/24 16:54:57;;;;;;;26.17;18.33;;;;;;;16.23;100.00;100337.34;4997296;28;20410;-85
2022/09/24 16:57:22;;;;;;;31.02;19.02;;;;;;;16.07;100.00;100343.06;4982678;28;20034;-86
2022/09/24 16:59:48;;;;;;;28.52;19.08;;;;;;;16.11;100.00;100348.84;5000578;28;20041;-89
2022/09/24 17:02:13;;;;;;;28.17;19.10;;;;;;;16.00;100.00;100340.38;4983796;28;20034;-86
2022/09/24 17:04:39;;;;;;;30.95;19.70;;;;;;;15.98;100.00;100346.94;4997214;28;20061;-86
2022/09/24 17:07:04;;;;;;;35.20;19.95;;;;;;;16.07;100.00;100344.91;5003608;28;20038;-87
2022/09/24 17:12:14;;;;;;;27.77;17.88;;;;;;;16.10;100.00;100339.16;4997203;28;20373;-84
2022/09/24 17:14:39;;;;;;;27.38;18.50;;;;;;;16.20;100.00;100336.94;5003180;28;20034;-85
2022/09/24 17:17:05;;;;;;;30.67;18.90;;;;;;;16.19;100.00;100336.09;5002402;28;20034;-86
2022/09/24 17:19:31;;;;;;;31.10;19.33;;;;;;;16.06;100.00;100329.91;5000611;28;20490;-87
2022/09/24 17:21:57;;;;;;;32.30;19.92;;;;;;;16.00;100.00;100332.34;5002500;28;20030;-87
2022/09/24 17:24:23;;;;;;;32.13;20.70;;;;;;;15.98;100.00;100334.38;5000296;28;20038;-87
2022/09/24 17:26:49;;;;;;;29.50;21.98;;;;;;;15.94;100.00;100340.38;5000451;28;20070;-89
2022/09/24 17:41:31;;;;;;;42.33;23.23;;;;;;;15.74;100.00;100355.50;5110168;23;20034;-86
2022/09/24 17:44:54;;;;;;;31.38;23.15;;;;;;;15.72;100.00;100347.66;5105185;23;20066;-86
2022/09/24 17:50:31;;;;;;;34.30;23.90;;;;;;;15.65;100.00;100340.63;5499533;23;20562;-87
2022/09/24 17:52:57;;;;;;;31.45;22.73;;;;;;;15.68;100.00;100338.41;4962341;28;20065;-88
2022/09/24 17:55:22;;;;;;;36.97;25.42;;;;;;;15.68;100.00;100342.91;4977714;28;20034;-85
2022/09/24 17:57:48;;;;;;;34.35;24.25;;;;;;;15.66;100.00;100335.13;4995552;28;20038;-88
2022/09/24 18:00:14;;;;;;;34.70;24.33;;;;;;;15.64;100.00;100339.84;4961150;28;20058;-92
2022/09/24 18:02:39;;;;;;;37.97;24.10;;;;;;;15.62;100.00;100333.03;4957711;28;20035;-89
2022/09/24 18:05:06;;;;;;;39.35;24.33;;;;;;;15.57;100.00;100330.97;4959718;28;20109;-88
2022/09/24 18:07:31;;;;;;;35.17;26.20;;;;;;;15.49;100.00;100323.94;4975721;28;20395;-85
2022/09/24 18:10:00;;;;;;;38.83;25.23;;;;;;;15.60;100.00;100329.75;5003552;28;20062;-88
2022/09/24 18:12:25;;;;;;;40.78;25.20;;;;;;;15.59;100.00;100328.91;4998949;28;20014;-87
2022/09/24 18:14:51;;;;;;;37.50;26.38;;;;;;;15.51;100.00;100334.44;4962363;28;20129;-87
2022/09/24 18:17:16;;;;;;;40.28;26.70;;;;;;;15.47;100.00;100343.84;4976989;28;20058;-87
2022/09/24 18:19:42;;;;;;;36.22;27.00;;;;;;;15.43;100.00;100339.91;4976861;28;20045;-86
2022/09/24 18:22:09;;;;;;;37.88;27.00;;;;;;;15.46;100.00;100334.16;4976819;28;20034;-88
2022/09/24 18:24:35;;;;;;;41.10;28.88;;;;;;;15.48;100.00;100327.63;4976480;28;20034;-89
2022/09/24 18:27:00;;;;;;;37.15;27.20;;;;;;;15.41;100.00;100325.94;4999187;28;20493;-91
2022/09/24 18:29:26;;;;;;;36.80;26.60;;;;;;;15.36;100.00;100339.03;4998957;28;20026;-92
2022/09/24 18:31:55;;;;;;;41.83;27.83;;;;;;;15.30;100.00;100329.16;5001045;28;20038;-92
2022/09/24 18:34:21;;;;;;;41.80;29.05;;;;;;;15.31;100.00;100330.81;5002883;28;20036;-89
2022/09/24 18:36:46;;;;;;;44.75;28.55;;;;;;;15.33;100.00;100334.09;4998555;28;20041;-85
2022/09/24 18:39:15;;;;;;;45.45;28.77;;;;;;;15.35;100.00;100334.72;4997214;28;20125;-87
2022/09/24 18:41:41;;;;;;;43.40;28.63;;;;;;;15.37;100.00;100346.03;4980348;28;20491;-88
2022/09/24 18:44:09;;;;;;;41.97;29.42;;;;;;;15.40;100.00;100346.47;4999132;28;20102;-88
2022/09/24 18:46:35;;;;;;;46.60;29.60;;;;;;;15.39;100.00;100349.31;5002263;28;20030;-86
2022/09/24 18:49:07;;;;;;;39.97;28.00;;;;;;;15.34;100.00;100341.09;4989065;28;20046;-87
2022/09/24 18:51:35;;;;;;;41.13;29.17;;;;;;;15.29;100.00;100338.19;4987440;28;20042;-89
2022/09/24 18:54:05;;;;;;;36.58;27.80;;;;;;;15.25;100.00;100337.75;5002381;28;20034;-88
2022/09/24 18:56:31;;;;;;;43.85;29.38;;;;;;;15.25;100.00;100342.25;5006454;28;20037;-90
2022/09/24 18:59:06;;;;;;;44.22;29.15;;;;;;;15.39;100.00;100341.31;5010743;28;20049;-88
2022/09/24 19:01:31;;;;;;;39.85;28.35;;;;;;;15.49;100.00;100339.13;5004517;28;20084;-90
2022/09/24 19:04:02;;;;;;;41.53;29.15;;;;;;;15.48;100.00;100338.31;5010443;28;20026;-87
2022/09/24 19:06:29;;;;;;;44.15;28.15;;;;;;;15.46;100.00;100334.16;5010172;28;20026;-89
2022/09/24 19:08:55;;;;;;;43.13;29.00;;;;;;;15.38;100.00;100337.81;5004340;28;20084;-86
2022/09/24 19:11:21;;;;;;;41.80;29.38;;;;;;;15.34;100.00;100336.59;4978383;28;20041;-88
2022/09/24 19:13:52;;;;;;;37.28;28.13;;;;;;;15.28;100.00;100342.69;4978955;28;20034;-88
2022/09/24 19:16:19;;;;;;;43.20;29.50;;;;;;;15.28;100.00;100347.22;4944026;28;20162;-89
2022/09/24 19:18:46;;;;;;;40.92;28.83;;;;;;;15.30;100.00;100339.84;4961045;28;20043;-90
2022/09/24 19:21:15;;;;;;;39.83;28.52;;;;;;;15.31;100.00;100336.94;4945616;28;20121;-90
2022/09/24 19:23:48;;;;;;;41.80;30.65;;;;;;;15.26;100.00;100346.59;4983825;28;20034;-86
2022/09/24 19:26:16;;;;;;;42.78;30.25;;;;;;;15.27;100.00;100357.09;4981027;28;20046;-89
2022/09/24 19:28:43;;;;;;;42.03;29.20;;;;;;;15.37;100.00;100349.53;4978404;28;20105;-87
2022/09/24 19:31:19;;;;;;;45.28;28.50;;;;;;;15.29;100.00;100351.53;4979919;28;20547;-89
2022/09/24 19:33:49;;;;;;;43.95;29.15;;;;;;;15.30;100.00;100345.19;4982358;28;20062;-87
2022/09/24 19:36:16;;;;;;;43.95;30.67;;;;;;;15.24;100.00;100340.63;4976919;28;20045;-91
2022/09/24 19:38:42;;;;;;;42.13;29.73;;;;;;;15.29;100.00;100338.19;4977900;28;20105;-87
2022/09/24 19:41:18;;;;;;;38.88;30.98;;;;;;;15.29;100.00;100352.34;4995871;28;20031;-88
2022/09/24 19:43:44;;;;;;;42.03;29.90;;;;;;;15.31;100.00;100350.31;4983938;28;20043;-89
2022/09/24 19:46:15;;;;;;;40.83;30.73;;;;;;;15.39;100.00;100344.81;4983646;28;20015;-88
2022/09/24 19:48:46;;;;;;;31.47;23.77;;;;;;;15.40;100.00;100356.31;4999848;28;20026;-86
2022/09/24 19:51:15;;;;;;;41.30;29.67;;;;;;;15.47;100.00;100355.34;5000001;28;20289;-87
2022/09/24 19:53:41;;;;;;;44.47;32.17;;;;;;;15.59;100.00;100350.28;4999332;28;20019;-87
2022/09/24 19:56:10;;;;;;;41.33;30.55;;;;;;;15.71;100.00;100350.56;4983652;28;20038;-88
2022/09/24 19:58:39;;;;;;;47.50;32.63;;;;;;;15.54;100.00;100342.06;4960779;28;20042;-89
2022/09/24 20:01:07;;;;;;;40.55;30.52;;;;;;;15.57;100.00;100344.31;4962842;28;20518;-88
2022/09/24 20:03:38;;;;;;;42.63;31.65;;;;;;;15.42;100.00;100344.41;4962279;28;20035;-89
2022/09/24 20:06:15;;;;;;;49.55;31.60;;;;;;;15.41;100.00;100345.44;4980789;28;20049;-88
2022/09/24 20:08:41;;;;;;;43.65;31.75;;;;;;;15.41;100.00;100339.28;4947054;28;20122;-90
2022/09/24 20:11:13;;;;;;;46.40;33.80;;;;;;;15.51;100.00;100337.91;4963203;28;20464;-89
2022/09/24 20:13:45;;;;;;;43.22;31.77;;;;;;;15.55;100.00;100333.00;4979110;28;20034;-91
2022/09/24 20:16:14;;;;;;;42.63;30.75;;;;;;;15.53;100.00;100329.72;4979261;28;20035;-88
2022/09/24 20:19:03;;;;;;;51.50;32.35;;;;;;;15.40;100.00;100334.97;4963907;28;20507;-89
2022/09/24 20:21:35;;;;;;;44.72;33.20;;;;;;;15.44;100.00;100330.88;4969552;28;20043;-90
2022/09/24 20:24:05;;;;;;;48.22;33.65;;;;;;;15.33;100.00;100334.09;4966079;28;20039;-89
2022/09/24 20:29:21;;;;;;;48.80;34.05;;;;;;;15.26;100.00;100327.91;4971316;28;20034;-89
2022/09/24 20:31:57;;;;;;;49.35;35.95;;;;;;;15.25;100.00;100331.56;4970076;28;20046;-89
2022/09/24 20:34:27;;;;;;;52.47;36.70;;;;;;;15.28;100.00;100320.53;4968646;28;20077;-86
2022/09/24 20:37:00;;;;;;;52.85;37.08;;;;;;;15.17;100.00;100329.09;5001392;28;20083;-89
2022/09/24 20:39:26;;;;;;;54.05;36.88;;;;;;;15.14;100.00;100324.13;5001286;28;20049;-88
2022/09/24 20:41:52;;;;;;;56.75;39.30;;;;;;;15.12;100.00;100316.31;4983652;28;20084;-89
2022/09/24 20:44:19;;;;;;;48.80;36.33;;;;;;;15.22;100.00;100321.28;4989609;28;20132;-89
2022/09/24 20:46:51;;;;;;;54.95;38.65;;;;;;;15.29;100.00;100314.16;4987804;28;20039;-90
2022/09/24 20:49:21;;;;;;;55.05;38.05;;;;;;;15.28;100.00;100316.00;4978881;28;20124;-88
2022/09/24 20:51:52;;;;;;;51.35;37.78;;;;;;;15.21;100.00;100319.66;4972678;28;20530;-89
2022/09/24 20:54:19;;;;;;;51.63;37.47;;;;;;;15.16;100.00;100311.41;5005667;28;20052;-90
2022/09/24 20:56:45;;;;;;;48.08;34.83;;;;;;;15.12;100.00;100321.66;5000310;28;20058;-88
2022/09/24 20:59:11;;;;;;;52.30;34.28;;;;;;;15.19;100.00;100327.84;4995172;28;20037;-88
2022/09/24 21:01:38;;;;;;;44.08;31.92;;;;;;;15.18;100.00;100320.84;5015360;28;20026;-88
2022/09/24 21:04:04;;;;;;;43.40;31.10;;;;;;;15.14;100.00;100318.78;4998597;28;20042;-86
2022/09/24 21:06:29;;;;;;;42.70;31.85;;;;;;;15.11;100.00;100319.19;4988112;28;20089;-87
2022/09/24 21:08:56;;;;;;;46.75;32.45;;;;;;;15.20;100.00;100329.50;4995471;28;20042;-88
2022/09/24 21:11:25;;;;;;;44.15;32.72;;;;;;;15.21;100.00;100331.16;4978279;28;20081;-87
2022/09/24 21:13:59;;;;;;;42.22;30.73;;;;;;;15.35;100.00;100326.69;4994419;28;20078;-86
2022/09/24 21:16:28;;;;;;;44.17;31.13;;;;;;;15.29;100.00;100325.66;4974590;28;20093;-87
2022/09/24 21:18:53;;;;;;;40.17;31.50;;;;;;;15.29;100.00;100324.81;4991630;28;20085;-89
2022/09/24 21:21:21;;;;;;;45.92;31.45;;;;;;;15.33;100.00;100332.25;4994231;28;20030;-89
2022/09/24 21:23:52;;;;;;;44.05;30.08;;;;;;;15.41;100.00;100325.94;4976766;28;20456;-89
2022/09/24 21:26:29;;;;;;;41.78;30.67;;;;;;;15.40;100.00;100334.97;4992479;28;20034;-88
2022/09/24 21:28:59;;;;;;;39.30;29.30;;;;;;;15.33;100.00;100324.25;4974419;28;20411;-90
2022/09/24 21:31:30;;;;;;;39.97;28.10;;;;;;;15.41;100.00;100324.06;4995032;28;20057;-89
2022/09/24 21:33:56;;;;;;;36.67;27.95;;;;;;;15.30;100.00;100323.81;4992870;28;20076;-88
2022/09/24 21:36:24;;;;;;;41.88;29.33;;;;;;;15.11;100.00;100317.34;4993029;28;20383;-86
2022/09/24 21:38:58;;;;;;;37.53;26.83;;;;;;;15.20;100.00;100302.81;4993319;28;20046;-90
2022/09/24 21:41:36;;;;;;;39.30;26.25;;;;;;;15.01;100.00;100307.00;4976552;28;20442;-90
2022/09/24 21:44:01;;;;;;;38.08;27.25;;;;;;;14.91;100.00;100301.19;4993820;28;20030;-88
2022/09/24 21:46:31;;;;;;;37.22;28.25;;;;;;;14.95;100.00;100302.44;4976118;28;20065;-89
2022/09/24 21:48:58;;;;;;;37.17;26.23;;;;;;;14.89;100.00;100305.06;4992929;28;20038;-89
2022/09/24 21:51:25;;;;;;;34.88;25.48;;;;;;;15.07;100.00;100309.94;4956504;28;20034;-88
2022/09/24 21:53:53;;;;;;;30.20;21.23;;;;;;;15.16;100.00;100309.56;4975027;28;20033;-88
2022/09/24 21:56:20;;;;;;;31.02;22.58;;;;;;;15.20;100.00;100312.66;4992805;28;20531;-87
2022/09/24 21:58:48;;;;;;;27.48;20.75;;;;;;;15.25;100.00;100310.22;4993256;28;20026;-90
2022/09/24 22:01:15;;;;;;;25.38;19.05;;;;;;;15.12;100.00;100328.81;4995619;28;20034;-88